Time;durP1;ratioP1;P1;durP2;ratioP2;P2;SDS_P1;SDS_P2;PMS_P1;PMS_P2;Temp;Humidity;BMP_temperature;BMP_pressure;BME280_temperature;BME280_humidity;BME280_pressure;Samples;Min_cycle;Max_cycle;Signal;HPM_P1;HPM_P2
2022/06/23 00:00:30;;;;;;;6.97;3.33;;;;;;;;;;5134518;27;20474;-68
2022/06/23 00:02:58;;;;;;;5.90;4.33;;;;;;;;;;5134743;27;20851;-68
2022/06/23 00:05:27;;;;;;;4.60;4.20;;;;;;;;;;5134736;27;20525;-68
2022/06/23 00:07:57;;;;;;;6.13;4.30;;;;;;;;;;5134658;27;20529;-68
2022/06/23 00:10:25;;;;;;;7.97;4.50;;;;;;;;;;5134791;27;20848;-68
2022/06/23 00:12:53;;;;;;;5.10;3.83;;;;;;;;;;5134834;27;20439;-67
2022/06/23 00:15:28;;;;;;;8.70;4.00;;;;;;;;;;5134226;27;21011;-68
2022/06/23 00:17:57;;;;;;;4.77;3.77;;;;;;;;;;5134499;27;20919;-68
2022/06/23 00:20:26;;;;;;;7.40;4.63;;;;;;;;;;5134764;28;20986;-68
2022/06/23 00:22:54;;;;;;;6.47;4.20;;;;;;;;;;5134840;28;20434;-67
2022/06/23 00:25:29;;;;;;;5.10;3.63;;;;;;;;;;5134205;28;20528;-69
2022/06/23 00:27:57;;;;;;;4.30;3.90;;;;;;;;;;5134767;28;20519;-68
2022/06/23 00:30:26;;;;;;;4.17;3.77;;;;;;;;;;5134222;28;20971;-67
2022/06/23 00:32:53;;;;;;;5.90;4.30;;;;;;;;;;5134949;28;20431;-68
2022/06/23 00:35:21;;;;;;;6.50;4.23;;;;;;;;;;5134547;28;20791;-68
2022/06/23 00:37:49;;;;;;;6.03;4.03;;;;;;;;;;5134338;28;20513;-67
2022/06/23 00:40:19;;;;;;;5.33;4.57;;;;;;;;;;5134444;28;20477;-67
2022/06/23 00:42:53;;;;;;;5.63;4.63;;;;;;;;;;5134572;28;20808;-68
2022/06/23 00:45:23;;;;;;;8.03;4.70;;;;;;;;;;5134752;28;20454;-67
2022/06/23 00:47:52;;;;;;;8.43;4.87;;;;;;;;;;5134417;28;20525;-67
2022/06/23 00:50:24;;;;;;;6.00;4.93;;;;;;;;;;5137583;27;20556;-67
2022/06/23 00:52:54;;;;;;;7.53;4.73;;;;;;;;;;5138730;27;20461;-68
2022/06/23 00:55:24;;;;;;;7.70;3.90;;;;;;;;;;5138427;27;20783;-67
2022/06/23 00:57:57;;;;;;;12.43;4.67;;;;;;;;;;5138231;27;20533;-67
2022/06/23 01:00:26;;;;;;;6.07;4.80;;;;;;;;;;5138314;27;20426;-67
2022/06/23 01:02:56;;;;;;;6.43;4.77;;;;;;;;;;5138278;27;20438;-67
2022/06/23 01:05:25;;;;;;;5.00;4.50;;;;;;;;;;5138786;27;20952;-67
2022/06/23 01:07:57;;;;;;;6.40;4.57;;;;;;;;;;5137694;27;20488;-67
2022/06/23 01:10:26;;;;;;;8.07;4.63;;;;;;;;;;5138605;27;20430;-67
2022/06/23 01:12:59;;;;;;;7.00;4.70;;;;;;;;;;5137939;27;20535;-67
2022/06/23 01:15:30;;;;;;;7.93;5.27;;;;;;;;;;5138244;27;20509;-67
2022/06/23 01:18:01;;;;;;;10.43;4.93;;;;;;;;;;5137720;27;20887;-67
2022/06/23 01:20:31;;;;;;;5.20;4.67;;;;;;;;;;5138186;27;20517;-68
2022/06/23 01:23:05;;;;;;;5.50;4.87;;;;;;;;;;5137453;27;20437;-67
2022/06/23 01:25:44;;;;;;;7.33;5.67;;;;;;;;;;5137538;27;20462;-68
2022/06/23 01:28:16;;;;;;;7.23;4.30;;;;;;;;;;5138007;27;20516;-68
2022/06/23 01:30:48;;;;;;;7.73;5.20;;;;;;;;;;5137999;27;20519;-68
2022/06/23 01:33:17;;;;;;;6.90;5.17;;;;;;;;;;5137277;27;20510;-68
2022/06/23 01:35:47;;;;;;;6.47;4.73;;;;;;;;;;5137192;27;20529;-67
2022/06/23 01:38:19;;;;;;;7.03;5.27;;;;;;;;;;5137181;27;20980;-67
2022/06/23 01:40:49;;;;;;;9.43;5.80;;;;;;;;;;5138040;27;20426;-67
2022/06/23 01:43:18;;;;;;;10.07;5.10;;;;;;;;;;5136985;27;20526;-68
2022/06/23 01:45:49;;;;;;;8.10;5.57;;;;;;;;;;5137326;27;20525;-67
2022/06/23 01:48:51;;;;;;;6.50;5.30;;;;;;;;;;5137347;27;20532;-68
2022/06/23 01:51:06;;;;;;;10.63;5.23;;;;;;;;;;5137271;27;20474;-67
2022/06/23 01:53:34;;;;;;;11.20;5.73;;;;;;;;;;5137148;27;20521;-67
2022/06/23 01:56:08;;;;;;;6.10;4.70;;;;;;;;;;5137116;27;20438;-67
2022/06/23 01:58:43;;;;;;;5.93;5.33;;;;;;;;;;5137443;27;20522;-67
2022/06/23 02:01:14;;;;;;;9.37;5.63;;;;;;;;;;5135887;27;20431;-67
2022/06/23 02:03:44;;;;;;;7.27;6.50;;;;;;;;;;5136593;27;20431;-67
2022/06/23 02:06:16;;;;;;;7.10;5.63;;;;;;;;;;5136730;27;20518;-68
2022/06/23 02:08:47;;;;;;;6.57;5.77;;;;;;;;;;5137265;27;20431;-68
2022/06/23 02:11:15;;;;;;;8.70;6.90;;;;;;;;;;5137137;27;20450;-68
2022/06/23 02:13:45;;;;;;;10.00;6.00;;;;;;;;;;5136473;27;20935;-68
2022/06/23 02:16:15;;;;;;;11.20;7.03;;;;;;;;;;5136410;27;20561;-68
2022/06/23 02:18:45;;;;;;;9.90;6.33;;;;;;;;;;5136867;27;20537;-67
2022/06/23 02:21:21;;;;;;;8.30;6.53;;;;;;;;;;5136553;27;20441;-67
2022/06/23 02:23:50;;;;;;;9.30;6.27;;;;;;;;;;5136812;27;20434;-67
2022/06/23 02:26:21;;;;;;;7.17;6.53;;;;;;;;;;5137438;27;20528;-67
2022/06/23 02:28:58;;;;;;;14.83;7.13;;;;;;;;;;5136931;27;20430;-68
2022/06/23 02:31:28;;;;;;;6.07;5.47;;;;;;;;;;5136875;27;20925;-67
2022/06/23 02:33:59;;;;;;;11.30;6.90;;;;;;;;;;5136820;27;20462;-67
2022/06/23 02:36:34;;;;;;;10.97;6.90;;;;;;;;;;5136654;27;20828;-68
2022/06/23 02:39:03;;;;;;;7.13;6.40;;;;;;;;;;5136030;27;20426;-67
2022/06/23 02:41:32;;;;;;;9.57;7.17;;;;;;;;;;5136505;27;20525;-67
2022/06/23 02:44:06;;;;;;;10.90;6.30;;;;;;;;;;5135871;27;20530;-67
2022/06/23 02:46:41;;;;;;;12.03;6.60;;;;;;;;;;5136202;27;20517;-67
2022/06/23 02:49:23;;;;;;;7.70;6.90;;;;;;;;;;5135896;27;20480;-67
2022/06/23 02:52:04;;;;;;;7.33;6.63;;;;;;;;;;5136146;27;20513;-67
2022/06/23 02:54:39;;;;;;;8.40;7.07;;;;;;;;;;5135981;27;20468;-67
2022/06/23 02:57:20;;;;;;;8.40;7.43;;;;;;;;;;5136139;27;21029;-67
2022/06/23 02:59:50;;;;;;;12.40;6.90;;;;;;;;;;5136225;27;20437;-67
2022/06/23 03:02:21;;;;;;;9.00;7.00;;;;;;;;;;5136253;27;20844;-67
2022/06/23 03:04:50;;;;;;;9.50;7.00;;;;;;;;;;5135483;27;20426;-67
2022/06/23 03:07:21;;;;;;;7.83;6.80;;;;;;;;;;5135495;27;20537;-67
2022/06/23 03:09:50;;;;;;;11.20;6.93;;;;;;;;;;5136170;27;20824;-67
2022/06/23 03:12:20;;;;;;;8.63;6.77;;;;;;;;;;5135387;27;20438;-67
2022/06/23 03:14:53;;;;;;;9.40;7.33;;;;;;;;;;5135699;27;20521;-67
2022/06/23 03:17:22;;;;;;;13.27;8.80;;;;;;;;;;5135535;27;20521;-67
2022/06/23 03:19:54;;;;;;;8.43;7.53;;;;;;;;;;5135109;27;20531;-67
2022/06/23 03:22:24;;;;;;;9.80;7.50;;;;;;;;;;5135604;27;20450;-68
2022/06/23 03:24:55;;;;;;;8.30;7.07;;;;;;;;;;5135605;27;20444;-68
2022/06/23 03:27:27;;;;;;;13.77;7.40;;;;;;;;;;5135646;27;20458;-68
2022/06/23 03:29:58;;;;;;;12.57;7.40;;;;;;;;;;5135334;27;20479;-68
2022/06/23 03:32:28;;;;;;;8.43;7.53;;;;;;;;;;5135852;27;20463;-68
2022/06/23 03:34:58;;;;;;;11.90;6.97;;;;;;;;;;5135630;27;20453;-67
2022/06/23 03:37:29;;;;;;;12.57;7.90;;;;;;;;;;5135149;27;20553;-68
2022/06/23 03:42:51;;;;;;;13.20;7.53;;;;;;;;;;5134978;27;20434;-68
2022/06/23 03:45:24;;;;;;;12.20;7.60;;;;;;;;;;5135115;27;20436;-66
2022/06/23 03:47:55;;;;;;;8.50;7.60;;;;;;;;;;5134950;27;21014;-67
2022/06/23 03:50:25;;;;;;;12.23;6.70;;;;;;;;;;5134539;27;20469;-67
2022/06/23 03:52:54;;;;;;;9.40;6.90;;;;;;;;;;5134635;27;20440;-67
2022/06/23 03:55:24;;;;;;;19.73;7.43;;;;;;;;;;5132373;27;20445;-67
2022/06/23 03:57:53;;;;;;;10.20;6.80;;;;;;;;;;5134164;27;20569;-67
2022/06/23 04:00:30;;;;;;;8.20;6.83;;;;;;;;;;5134416;27;20438;-67
2022/06/23 04:03:03;;;;;;;8.43;6.30;;;;;;;;;;5122651;27;20526;-67
2022/06/23 04:05:45;;;;;;;8.57;7.67;;;;;;;;;;5113175;28;20438;-67
2022/06/23 04:08:14;;;;;;;10.80;7.20;;;;;;;;;;5113499;28;20510;-67
2022/06/23 04:10:42;;;;;;;8.10;7.10;;;;;;;;;;5113416;28;20500;-67
2022/06/23 04:13:15;;;;;;;12.47;7.20;;;;;;;;;;5113585;28;20485;-67
2022/06/23 04:15:44;;;;;;;7.00;6.40;;;;;;;;;;5113777;28;20781;-67
2022/06/23 04:18:13;;;;;;;7.90;6.97;;;;;;;;;;5113428;28;20478;-67
2022/06/23 04:20:44;;;;;;;6.63;5.93;;;;;;;;;;5113507;28;20534;-67
2022/06/23 04:23:16;;;;;;;15.53;6.87;;;;;;;;;;5112947;28;20464;-68
2022/06/23 04:25:47;;;;;;;11.97;7.20;;;;;;;;;;5113101;28;20964;-67
2022/06/23 04:28:19;;;;;;;6.67;6.07;;;;;;;;;;5113651;28;20434;-67
2022/06/23 04:30:49;;;;;;;8.80;6.30;;;;;;;;;;5113484;28;20431;-67
2022/06/23 04:33:19;;;;;;;10.37;7.00;;;;;;;;;;5113241;28;20532;-67
2022/06/23 04:35:49;;;;;;;7.70;6.70;;;;;;;;;;5113566;28;20910;-67
2022/06/23 04:38:19;;;;;;;11.67;6.70;;;;;;;;;;5112849;28;20459;-68
2022/06/23 04:40:49;;;;;;;8.00;5.80;;;;;;;;;;5112799;28;20449;-67
2022/06/23 04:43:18;;;;;;;7.23;5.90;;;;;;;;;;5113288;28;20916;-67
2022/06/23 04:45:54;;;;;;;10.60;6.60;;;;;;;;;;5113155;28;20838;-67
2022/06/23 04:48:25;;;;;;;11.73;6.50;;;;;;;;;;5113222;28;20544;-67
2022/06/23 04:50:56;;;;;;;6.97;6.33;;;;;;;;;;5113306;28;20512;-68
2022/06/23 04:53:40;;;;;;;11.80;7.43;;;;;;;;;;5114086;28;20893;-67
2022/06/23 04:56:12;;;;;;;11.53;6.90;;;;;;;;;;5113431;28;20431;-67
2022/06/23 04:58:44;;;;;;;8.93;6.10;;;;;;;;;;5113356;28;20976;-67
2022/06/23 05:01:15;;;;;;;8.47;5.80;;;;;;;;;;5113082;28;20763;-68
2022/06/23 05:03:47;;;;;;;8.00;6.03;;;;;;;;;;5113113;28;20431;-68
2022/06/23 05:06:20;;;;;;;6.60;5.73;;;;;;;;;;5113344;28;20843;-68
2022/06/23 05:08:48;;;;;;;8.97;5.50;;;;;;;;;;5113542;28;20447;-68
2022/06/23 05:11:16;;;;;;;8.20;5.10;;;;;;;;;;5113464;28;20559;-66
2022/06/23 05:13:46;;;;;;;6.40;5.80;;;;;;;;;;5113604;28;20889;-67
2022/06/23 05:16:19;;;;;;;15.70;6.90;;;;;;;;;;5113863;28;20788;-67
2022/06/23 05:18:48;;;;;;;12.13;5.93;;;;;;;;;;5113700;28;20459;-67
2022/06/23 05:21:18;;;;;;;8.20;6.50;;;;;;;;;;5113165;28;20529;-71
2022/06/23 05:23:47;;;;;;;12.50;5.60;;;;;;;;;;5114052;28;20488;-65
2022/06/23 05:26:15;;;;;;;10.30;6.37;;;;;;;;;;5113035;28;20540;-65
2022/06/23 05:28:44;;;;;;;8.53;5.53;;;;;;;;;;5113356;28;20448;-65
2022/06/23 05:31:15;;;;;;;7.53;5.97;;;;;;;;;;5113270;28;20869;-65
2022/06/23 05:33:46;;;;;;;8.30;6.80;;;;;;;;;;5113071;28;20512;-65
2022/06/23 05:36:15;;;;;;;6.20;5.30;;;;;;;;;;5116529;28;20436;-65
2022/06/23 05:38:45;;;;;;;10.53;6.57;;;;;;;;;;5116852;28;20506;-65
2022/06/23 05:41:16;;;;;;;6.77;5.23;;;;;;;;;;5116569;28;20532;-65
2022/06/23 05:43:43;;;;;;;7.43;5.37;;;;;;;;;;5116895;28;20513;-65
2022/06/23 05:46:16;;;;;;;6.13;5.40;;;;;;;;;;5116793;28;20488;-65
2022/06/23 05:48:46;;;;;;;9.37;6.13;;;;;;;;;;5117535;28;20518;-64
2022/06/23 05:51:16;;;;;;;5.83;5.33;;;;;;;;;;5116690;28;20968;-64
2022/06/23 05:53:46;;;;;;;5.83;5.13;;;;;;;;;;5116389;28;20470;-64
2022/06/23 05:56:14;;;;;;;8.20;6.03;;;;;;;;;;5116423;28;20527;-64
2022/06/23 05:58:46;;;;;;;8.43;5.70;;;;;;;;;;5116629;28;20567;-65
2022/06/23 06:01:18;;;;;;;7.33;5.47;;;;;;;;;;5116187;28;20449;-65
2022/06/23 06:03:51;;;;;;;5.10;4.60;;;;;;;;;;5117090;28;20457;-64
2022/06/23 06:06:18;;;;;;;8.40;5.00;;;;;;;;;;5116690;28;20561;-65
2022/06/23 06:11:33;;;;;;;6.80;5.50;;;;;;;;;;5116151;28;20413;-65
2022/06/23 06:14:01;;;;;;;7.83;5.50;;;;;;;;;;5116771;28;20444;-65
2022/06/23 06:16:29;;;;;;;5.37;4.90;;;;;;;;;;5115761;28;20949;-65
2022/06/23 06:18:58;;;;;;;5.07;4.57;;;;;;;;;;5116164;28;20481;-65
2022/06/23 06:21:27;;;;;;;6.23;5.00;;;;;;;;;;5116032;28;20532;-65
2022/06/23 06:23:57;;;;;;;6.93;4.70;;;;;;;;;;5115903;28;20491;-65
2022/06/23 06:26:25;;;;;;;9.10;5.17;;;;;;;;;;5116533;28;20431;-65
2022/06/23 06:28:55;;;;;;;7.20;4.53;;;;;;;;;;5115690;28;20485;-65
2022/06/23 06:31:25;;;;;;;6.87;4.43;;;;;;;;;;5116256;28;20509;-65
2022/06/23 06:33:54;;;;;;;7.27;5.20;;;;;;;;;;5115786;28;20437;-65
2022/06/23 06:36:32;;;;;;;5.80;4.80;;;;;;;;;;5116525;28;20527;-65
2022/06/23 06:39:01;;;;;;;5.50;4.50;;;;;;;;;;5115897;28;20476;-66
2022/06/23 06:41:29;;;;;;;7.03;4.70;;;;;;;;;;5115436;28;20937;-65
2022/06/23 06:43:58;;;;;;;4.70;4.03;;;;;;;;;;5115275;28;20981;-65
2022/06/23 06:46:25;;;;;;;7.97;4.03;;;;;;;;;;5114858;28;20476;-66
2022/06/23 06:48:52;;;;;;;8.20;4.33;;;;;;;;;;5115581;28;20445;-65
2022/06/23 06:51:20;;;;;;;4.40;4.00;;;;;;;;;;5115699;28;20506;-65
2022/06/23 06:53:52;;;;;;;5.90;4.00;;;;;;;;;;5115139;28;20540;-66
2022/06/23 06:56:21;;;;;;;5.87;4.20;;;;;;;;;;5115447;28;20448;-66
2022/06/23 06:58:52;;;;;;;4.67;4.27;;;;;;;;;;5114926;28;20567;-66
2022/06/23 07:01:21;;;;;;;7.00;3.87;;;;;;;;;;5115439;28;20425;-65
2022/06/23 07:03:49;;;;;;;3.83;3.53;;;;;;;;;;5115397;28;20528;-65
2022/06/23 07:06:19;;;;;;;4.27;3.87;;;;;;;;;;5114993;28;20962;-66
2022/06/23 07:08:48;;;;;;;5.73;4.33;;;;;;;;;;5115060;28;20454;-65
2022/06/23 07:11:20;;;;;;;4.70;4.30;;;;;;;;;;5115656;28;20442;-65
2022/06/23 07:13:50;;;;;;;4.27;3.70;;;;;;;;;;5114928;28;20433;-65
2022/06/23 07:16:19;;;;;;;5.47;3.53;;;;;;;;;;5114934;28;21030;-65
2022/06/23 07:18:48;;;;;;;3.93;3.50;;;;;;;;;;5114802;28;20569;-65
2022/06/23 07:21:18;;;;;;;4.10;3.80;;;;;;;;;;5114928;28;20801;-66
2022/06/23 07:23:48;;;;;;;5.80;3.50;;;;;;;;;;5114848;28;20521;-66
2022/06/23 07:26:22;;;;;;;3.80;3.50;;;;;;;;;;5115601;28;20442;-66
2022/06/23 07:28:52;;;;;;;4.90;3.73;;;;;;;;;;5114894;28;20867;-66
2022/06/23 07:31:21;;;;;;;3.87;3.40;;;;;;;;;;5114426;28;20947;-66
2022/06/23 07:33:49;;;;;;;7.07;3.80;;;;;;;;;;5114348;28;20920;-66
2022/06/23 07:36:18;;;;;;;3.80;3.40;;;;;;;;;;5114694;28;20449;-67
2022/06/23 07:38:50;;;;;;;4.40;3.50;;;;;;;;;;5114482;28;20477;-66
2022/06/23 07:41:21;;;;;;;3.40;3.10;;;;;;;;;;5114631;28;20469;-66
2022/06/23 07:43:52;;;;;;;3.97;3.50;;;;;;;;;;5114474;28;20423;-66
2022/06/23 07:46:19;;;;;;;6.20;3.90;;;;;;;;;;5114449;28;20847;-66
2022/06/23 07:48:46;;;;;;;4.53;3.20;;;;;;;;;;5113984;28;20443;-66
2022/06/23 07:51:14;;;;;;;5.23;3.43;;;;;;;;;;5114759;28;20470;-66
2022/06/23 07:53:43;;;;;;;3.50;3.10;;;;;;;;;;5114259;28;20447;-66
2022/06/23 07:56:13;;;;;;;4.27;3.47;;;;;;;;;;5114050;28;20919;-66
2022/06/23 07:58:43;;;;;;;4.50;3.20;;;;;;;;;;5113118;28;20476;-65
2022/06/23 08:01:14;;;;;;;3.93;3.63;;;;;;;;;;5114464;28;20849;-66
2022/06/23 08:03:45;;;;;;;3.83;3.27;;;;;;;;;;5114240;28;20914;-65
2022/06/23 08:06:17;;;;;;;5.10;3.70;;;;;;;;;;5114391;28;20828;-65
2022/06/23 08:08:45;;;;;;;9.40;3.40;;;;;;;;;;5114596;28;20463;-65
2022/06/23 08:14:03;;;;;;;6.07;3.27;;;;;;;;;;5114073;28;20399;-66
2022/06/23 08:16:49;;;;;;;8.67;4.00;;;;;;;;;;5113900;28;20506;-65
2022/06/23 08:19:17;;;;;;;3.80;3.43;;;;;;;;;;5114171;28;20466;-65
2022/06/23 08:21:46;;;;;;;5.60;3.43;;;;;;;;;;5113897;28;20438;-65
2022/06/23 08:24:15;;;;;;;5.70;3.30;;;;;;;;;;5113496;28;20475;-65
2022/06/23 08:26:44;;;;;;;6.23;3.13;;;;;;;;;;5114112;28;20484;-66
2022/06/23 08:29:14;;;;;;;6.60;3.20;;;;;;;;;;5113512;28;20483;-66
2022/06/23 08:31:41;;;;;;;7.00;3.50;;;;;;;;;;5114044;28;20460;-66
2022/06/23 08:34:09;;;;;;;3.60;3.30;;;;;;;;;;5113783;28;20880;-66
2022/06/23 08:36:40;;;;;;;10.37;3.70;;;;;;;;;;5113550;28;20441;-66
2022/06/23 08:39:12;;;;;;;4.93;3.30;;;;;;;;;;5113680;28;20500;-66
2022/06/23 08:41:42;;;;;;;11.77;4.10;;;;;;;;;;5114139;28;20523;-66
2022/06/23 08:44:13;;;;;;;5.47;3.57;;;;;;;;;;5114024;28;20445;-66
2022/06/23 08:46:45;;;;;;;4.73;3.60;;;;;;;;;;5113250;28;21015;-66
2022/06/23 08:49:16;;;;;;;7.00;3.30;;;;;;;;;;5113456;28;20925;-65
2022/06/23 08:51:46;;;;;;;7.10;3.60;;;;;;;;;;5093650;28;20769;-66
2022/06/23 08:54:18;;;;;;;4.77;3.30;;;;;;;;;;5093176;28;20436;-66
2022/06/23 08:56:49;;;;;;;3.60;3.30;;;;;;;;;;5092949;28;20525;-65
2022/06/23 08:59:20;;;;;;;6.30;3.40;;;;;;;;;;5093469;28;20495;-65
2022/06/23 09:01:51;;;;;;;4.70;3.57;;;;;;;;;;5093794;28;20455;-65
2022/06/23 09:04:22;;;;;;;8.00;6.67;;;;;;;;;;5093352;28;20829;-65
2022/06/23 09:06:53;;;;;;;5.43;3.17;;;;;;;;;;5093358;28;20428;-65
2022/06/23 09:09:24;;;;;;;4.43;3.10;;;;;;;;;;5092865;28;20479;-65
2022/06/23 09:11:55;;;;;;;7.03;3.63;;;;;;;;;;5097368;28;20830;-65
2022/06/23 09:14:38;;;;;;;6.90;3.53;;;;;;;;;;5096559;28;20902;-65
2022/06/23 09:17:25;;;;;;;6.40;3.90;;;;;;;;;;5096657;28;20475;-65
2022/06/23 09:19:59;;;;;;;8.10;4.10;;;;;;;;;;5096890;28;20553;-65
2022/06/23 09:22:40;;;;;;;5.90;4.47;;;;;;;;;;5097026;28;20829;-65
2022/06/23 09:25:15;;;;;;;5.90;4.10;;;;;;;;;;5096322;28;20519;-65
2022/06/23 09:27:52;;;;;;;6.13;3.77;;;;;;;;;;5096810;28;20441;-65
2022/06/23 09:30:22;;;;;;;4.30;3.37;;;;;;;;;;5096877;28;20434;-65
2022/06/23 09:33:01;;;;;;;5.67;3.53;;;;;;;;;;5096318;28;21007;-65
2022/06/23 09:35:48;;;;;;;3.90;3.30;;;;;;;;;;5096508;28;20428;-65
2022/06/23 09:38:30;;;;;;;8.43;3.77;;;;;;;;;;5097076;28;20437;-65
2022/06/23 09:41:02;;;;;;;6.10;3.77;;;;;;;;;;5096537;28;20504;-65
2022/06/23 09:43:47;;;;;;;3.90;3.17;;;;;;;;;;5096483;28;20471;-65
2022/06/23 09:46:33;;;;;;;7.30;3.53;;;;;;;;;;5096306;28;20429;-66
2022/06/23 09:49:20;;;;;;;7.67;4.07;;;;;;;;;;5095980;28;20651;-65
2022/06/23 09:52:04;;;;;;;4.90;3.73;;;;;;;;;;5096003;28;20439;-65
2022/06/23 09:54:51;;;;;;;3.57;3.27;;;;;;;;;;5095526;28;20501;-65
2022/06/23 09:57:32;;;;;;;6.87;3.70;;;;;;;;;;5095953;28;20511;-65
2022/06/23 10:00:09;;;;;;;9.50;4.13;;;;;;;;;;5095766;28;20509;-65
2022/06/23 10:02:41;;;;;;;3.83;3.53;;;;;;;;;;5096056;28;20437;-65
2022/06/23 10:05:19;;;;;;;4.43;3.30;;;;;;;;;;5096420;28;20812;-65
2022/06/23 10:08:01;;;;;;;5.63;3.80;;;;;;;;;;5095954;28;20490;-65
2022/06/23 10:10:35;;;;;;;6.77;3.90;;;;;;;;;;5093109;28;20465;-66
2022/06/23 10:13:14;;;;;;;4.60;3.60;;;;;;;;;;5095626;28;20403;-65
2022/06/23 10:15:59;;;;;;;5.30;3.60;;;;;;;;;;5095908;28;20740;-65
2022/06/23 10:18:41;;;;;;;5.63;3.67;;;;;;;;;;5082648;28;20428;-65
2022/06/23 10:21:14;;;;;;;4.03;3.50;;;;;;;;;;5094513;28;20471;-65
2022/06/23 10:23:59;;;;;;;3.60;3.30;;;;;;;;;;5096275;28;20406;-66
2022/06/23 10:26:33;;;;;;;4.03;3.63;;;;;;;;;;5094884;28;20403;-66
2022/06/23 10:29:13;;;;;;;5.20;3.40;;;;;;;;;;5095294;28;20533;-66
2022/06/23 10:31:51;;;;;;;7.80;3.80;;;;;;;;;;5095547;28;20434;-65
2022/06/23 10:34:29;;;;;;;3.67;3.47;;;;;;;;;;5095194;28;20483;-65
2022/06/23 10:37:14;;;;;;;4.20;3.40;;;;;;;;;;5095409;28;20775;-65
2022/06/23 10:39:54;;;;;;;3.57;3.27;;;;;;;;;;5095498;28;20469;-66
2022/06/23 10:42:31;;;;;;;6.67;3.20;;;;;;;;;;5095500;28;20396;-66
2022/06/23 10:45:08;;;;;;;5.13;3.60;;;;;;;;;;5095762;28;20451;-66
2022/06/23 10:47:44;;;;;;;6.83;3.53;;;;;;;;;;5095089;28;20531;-66
2022/06/23 10:50:28;;;;;;;5.37;3.73;;;;;;;;;;5102373;28;20491;-67
2022/06/23 10:53:02;;;;;;;5.67;3.60;;;;;;;;;;5115144;28;20497;-66
2022/06/23 10:55:45;;;;;;;4.50;3.20;;;;;;;;;;5114967;28;20516;-66
2022/06/23 10:58:26;;;;;;;7.00;3.10;;;;;;;;;;5115035;28;20519;-66
2022/06/23 11:00:57;;;;;;;3.00;2.80;;;;;;;;;;5115866;28;20465;-66
2022/06/23 11:03:40;;;;;;;3.70;2.87;;;;;;;;;;5115093;28;20425;-66
2022/06/23 11:06:14;;;;;;;3.83;3.53;;;;;;;;;;5115198;28;20958;-66
2022/06/23 11:08:51;;;;;;;6.17;3.90;;;;;;;;;;5115764;28;20435;-66
2022/06/23 11:11:38;;;;;;;3.90;3.50;;;;;;;;;;5114915;28;20492;-66
2022/06/23 11:14:11;;;;;;;5.03;3.17;;;;;;;;;;5114767;28;20481;-67
2022/06/23 11:16:43;;;;;;;3.00;2.80;;;;;;;;;;5114634;28;20862;-66
2022/06/23 11:19:21;;;;;;;3.40;3.20;;;;;;;;;;5115426;28;20978;-66
2022/06/23 11:21:54;;;;;;;3.30;3.00;;;;;;;;;;5115229;28;20486;-67
2022/06/23 11:24:27;;;;;;;5.20;3.23;;;;;;;;;;5115096;28;20419;-66
2022/06/23 11:27:00;;;;;;;3.33;3.03;;;;;;;;;;5114650;28;20863;-66
2022/06/23 11:29:44;;;;;;;2.83;2.67;;;;;;;;;;5114576;28;20445;-65
2022/06/23 11:32:19;;;;;;;4.70;3.13;;;;;;;;;;5114282;28;20528;-66
2022/06/23 11:34:54;;;;;;;3.07;2.77;;;;;;;;;;5114643;28;20523;-66
2022/06/23 11:37:37;;;;;;;5.23;2.90;;;;;;;;;;5114342;28;20429;-66
2022/06/23 11:40:16;;;;;;;3.50;3.20;;;;;;;;;;5114698;28;21014;-65
2022/06/23 11:42:54;;;;;;;4.43;2.93;;;;;;;;;;5114749;28;20473;-66
2022/06/23 11:45:26;;;;;;;8.40;3.60;;;;;;;;;;5114298;28;20450;-66
2022/06/23 11:48:00;;;;;;;7.10;3.87;;;;;;;;;;5114871;28;20446;-66
2022/06/23 11:50:34;;;;;;;3.10;2.90;;;;;;;;;;5114171;28;20536;-65
2022/06/23 11:53:08;;;;;;;4.13;3.27;;;;;;;;;;5114145;28;20515;-66
2022/06/23 11:55:39;;;;;;;3.13;2.83;;;;;;;;;;5114563;28;20503;-66
2022/06/23 11:58:22;;;;;;;2.93;2.80;;;;;;;;;;5114371;28;20422;-66
2022/06/23 12:00:59;;;;;;;3.70;3.50;;;;;;;;;;5114580;28;20476;-66
2022/06/23 12:03:33;;;;;;;3.60;3.30;;;;;;;;;;5114088;28;21012;-66
2022/06/23 12:06:05;;;;;;;7.40;4.07;;;;;;;;;;5114215;28;20432;-66
2022/06/23 12:08:38;;;;;;;3.33;3.03;;;;;;;;;;5114322;28;20524;-66
2022/06/23 12:11:06;;;;;;;4.87;3.70;;;;;;;;;;5114094;28;20516;-66
2022/06/23 12:13:34;;;;;;;5.90;3.50;;;;;;;;;;5114080;28;20533;-65
2022/06/23 12:16:02;;;;;;;5.90;3.73;;;;;;;;;;5113782;28;20665;-66
2022/06/23 12:18:31;;;;;;;4.03;3.57;;;;;;;;;;5113820;28;20453;-66
2022/06/23 12:21:01;;;;;;;4.43;4.03;;;;;;;;;;5113689;28;20469;-66
2022/06/23 12:23:31;;;;;;;3.80;3.50;;;;;;;;;;5113578;28;20525;-66
2022/06/23 12:26:03;;;;;;;4.27;3.03;;;;;;;;;;5113672;28;20444;-66
2022/06/23 12:28:35;;;;;;;3.30;3.00;;;;;;;;;;5113978;28;20848;-66
2022/06/23 12:31:06;;;;;;;9.43;3.10;;;;;;;;;;5114079;28;20438;-66
2022/06/23 12:33:35;;;;;;;3.67;2.90;;;;;;;;;;5113921;28;20537;-66
2022/06/23 12:36:07;;;;;;;5.17;3.20;;;;;;;;;;5113562;28;20982;-66
2022/06/23 12:38:39;;;;;;;5.27;3.80;;;;;;;;;;5113757;28;20463;-66
2022/06/23 12:41:10;;;;;;;4.30;3.40;;;;;;;;;;5113717;28;20565;-66
2022/06/23 12:43:43;;;;;;;3.60;3.30;;;;;;;;;;5113745;28;20517;-66
2022/06/23 12:46:14;;;;;;;3.70;3.20;;;;;;;;;;5117032;28;20425;-66
2022/06/23 12:48:48;;;;;;;5.07;2.93;;;;;;;;;;5117472;28;20478;-66
2022/06/23 12:51:23;;;;;;;3.27;3.07;;;;;;;;;;5118394;28;21038;-67
2022/06/23 12:53:59;;;;;;;4.17;3.17;;;;;;;;;;5117723;28;20434;-78
2022/06/23 12:56:42;;;;;;;5.10;3.40;;;;;;;;;;5117626;28;20516;-70
2022/06/23 12:59:13;;;;;;;4.43;2.90;;;;;;;;;;5117569;28;20430;-70
2022/06/23 13:01:44;;;;;;;8.10;3.20;;;;;;;;;;5117517;28;20417;-70
2022/06/23 13:04:14;;;;;;;4.00;3.43;;;;;;;;;;5118455;28;20426;-71
2022/06/23 13:06:45;;;;;;;4.10;3.10;;;;;;;;;;5117432;28;20469;-71
2022/06/23 13:09:19;;;;;;;4.83;3.20;;;;;;;;;;5117350;28;20435;-70
2022/06/23 13:11:52;;;;;;;4.00;2.77;;;;;;;;;;5117419;28;20449;-70
2022/06/23 13:14:23;;;;;;;4.10;3.73;;;;;;;;;;5133982;27;20850;-70
2022/06/23 13:16:55;;;;;;;4.43;3.10;;;;;;;;;;5137115;27;20987;-70
2022/06/23 13:19:24;;;;;;;6.37;3.77;;;;;;;;;;5137024;27;20515;-71
2022/06/23 13:21:51;;;;;;;4.30;3.10;;;;;;;;;;5136620;27;20529;-72
2022/06/23 13:24:20;;;;;;;3.80;2.77;;;;;;;;;;5137264;27;20541;-70
2022/06/23 13:26:52;;;;;;;6.70;3.23;;;;;;;;;;5136838;27;20468;-70
2022/06/23 13:29:22;;;;;;;3.27;2.97;;;;;;;;;;5137276;27;20504;-70
2022/06/23 13:31:51;;;;;;;5.57;3.00;;;;;;;;;;5136908;27;20504;-70
2022/06/23 13:34:20;;;;;;;8.10;3.37;;;;;;;;;;5137395;27;20524;-70
2022/06/23 13:36:49;;;;;;;3.73;3.43;;;;;;;;;;5136819;27;20534;-70
2022/06/23 13:39:23;;;;;;;7.93;3.40;;;;;;;;;;5136918;27;20534;-70
2022/06/23 13:41:53;;;;;;;4.70;3.67;;;;;;;;;;5137595;27;20761;-70
2022/06/23 13:44:26;;;;;;;3.10;2.87;;;;;;;;;;5136715;27;20434;-70
2022/06/23 13:46:58;;;;;;;3.93;3.13;;;;;;;;;;5137238;27;20456;-70
2022/06/23 13:49:30;;;;;;;5.70;3.10;;;;;;;;;;5136383;27;20460;-70
2022/06/23 13:51:59;;;;;;;3.73;3.43;;;;;;;;;;5136458;27;20468;-70
2022/06/23 13:54:30;;;;;;;4.27;3.40;;;;;;;;;;5136590;27;20794;-70
2022/06/23 13:57:01;;;;;;;4.20;3.10;;;;;;;;;;5136299;27;20907;-71
2022/06/23 13:59:36;;;;;;;5.50;3.50;;;;;;;;;;5135821;27;20516;-70
2022/06/23 14:02:06;;;;;;;4.93;3.17;;;;;;;;;;5136700;27;20938;-70
2022/06/23 14:04:35;;;;;;;3.87;3.37;;;;;;;;;;5136702;27;20497;-71
2022/06/23 14:07:06;;;;;;;3.50;3.20;;;;;;;;;;5136543;27;20476;-71
2022/06/23 14:09:36;;;;;;;5.27;3.13;;;;;;;;;;5136630;27;20492;-70
2022/06/23 14:12:08;;;;;;;4.60;3.00;;;;;;;;;;5136757;27;20532;-70
2022/06/23 14:14:38;;;;;;;3.30;3.03;;;;;;;;;;5136545;27;20433;-71
2022/06/23 14:17:11;;;;;;;3.33;2.87;;;;;;;;;;5136307;27;20545;-69
2022/06/23 14:19:42;;;;;;;3.20;2.97;;;;;;;;;;5135794;27;20980;-71
2022/06/23 14:22:16;;;;;;;3.47;3.27;;;;;;;;;;5136577;27;20445;-70
2022/06/23 14:24:45;;;;;;;4.60;3.17;;;;;;;;;;5136118;27;20546;-70
2022/06/23 14:27:17;;;;;;;6.93;3.83;;;;;;;;;;5136013;27;20531;-71
2022/06/23 14:29:48;;;;;;;4.20;3.90;;;;;;;;;;5136594;27;20517;-70
2022/06/23 14:32:18;;;;;;;4.30;3.97;;;;;;;;;;5136434;27;20508;-70
2022/06/23 14:34:50;;;;;;;3.50;3.20;;;;;;;;;;5136441;27;20447;-70
2022/06/23 14:37:20;;;;;;;3.67;3.30;;;;;;;;;;5135757;27;20517;-70
2022/06/23 14:39:48;;;;;;;4.17;3.30;;;;;;;;;;5135357;27;20482;-71
2022/06/23 14:42:42;;;;;;;3.87;3.30;;;;;;;;;;5135590;27;20470;-70
2022/06/23 14:45:16;;;;;;;3.83;3.60;;;;;;;;;;5075975;27;20433;-70
2022/06/23 14:47:52;;;;;;;4.10;3.77;;;;;;;;;;5135706;27;20977;-70
2022/06/23 14:50:25;;;;;;;4.90;4.53;;;;;;;;;;5135879;27;20481;-69
2022/06/23 14:52:57;;;;;;;4.23;3.83;;;;;;;;;;5136126;27;20486;-70
2022/06/23 14:55:27;;;;;;;5.60;4.00;;;;;;;;;;5135988;27;20429;-69
2022/06/23 14:57:59;;;;;;;3.20;3.00;;;;;;;;;;5135149;27;20443;-70
2022/06/23 15:00:32;;;;;;;3.50;3.30;;;;;;;;;;5135215;27;20464;-71
2022/06/23 15:03:05;;;;;;;3.37;3.17;;;;;;;;;;5135291;27;20465;-69
2022/06/23 15:05:35;;;;;;;3.80;3.50;;;;;;;;;;5135616;27;20850;-71
2022/06/23 15:08:05;;;;;;;6.20;3.60;;;;;;;;;;5134965;27;20529;-70
2022/06/23 15:10:37;;;;;;;3.90;3.60;;;;;;;;;;5135059;27;20442;-71
2022/06/23 15:13:08;;;;;;;5.30;3.50;;;;;;;;;;5135280;27;20995;-71
2022/06/23 15:15:39;;;;;;;7.00;3.37;;;;;;;;;;5135282;27;20460;-70
2022/06/23 15:18:10;;;;;;;3.87;3.50;;;;;;;;;;5135151;27;20461;-70